Weather at Campbell River Airport

Public forecast

Using degrees Celsius for public forecast. Weather courtesy of forecast.io.

Current aviation weather report (METAR) for Campbell River Airport

Retrieved 2022/07/03 04:00 UTC (41 minutes ago):

CYBL 030400Z 29004KT 30SM FEW050 BKN250 20/13 A2982 RMK CU1CI6 CU TR LAST STFD OBS/NXT 031300Z SLP098 DENSITY ALT 1200FT

Aviation forecast (TAF) for Campbell River Airport

Retrieved 2022-07-03 01:00 UTC (4 hours ago):

TAF CYBL 030041Z 0301/0304 VRB03KT P6SM FEW050 BKN220 RMK NXT FCST BY 031500Z